Terminal Aerodrome Forecast
Issued by NWS Cleveland, OH

Home | Current Version | Previous Version | Graphics & Text | Print | Product List | Glossary Off
Versions: 1 2 3 4 5 6 7 8 9 10 11 12 13 14 15 16 17 18 19 20 21 22 23 24 25 26 27 28

000
FTUS41 KCLE 051600 AAC
TAFERI
TAF AMD
KERI 051608Z 0516/0612 VRB03KT 5SM HZ VCSH OVC050
     FM052000 03010KT 6SM -SHRA BKN040 OVC080
      TEMPO 0520/0524 4SM -SHRA BKN025
     FM060300 06005KT 5SM BR BKN015
     FM060700 07004KT 2SM BR OVC008=

USA.gov is the U.S. government's official web portal to all federal, state and local government web resources and services.